Time;durP1;ratioP1;P1;durP2;ratioP2;P2;SDS_P1;SDS_P2;PMS_P1;PMS_P2;Temp;Humidity;BMP_temperature;BMP_pressure;BME280_temperature;BME280_humidity;BME280_pressure;Samples;Min_cycle;Max_cycle;Signal;HPM_P1;HPM_P2
2022/02/20 00:00:11;;;;;;;7.32;4.78;;;4.60;99.90;;;;;;5073054;28;20123;-71
2022/02/20 00:02:36;;;;;;;5.07;4.57;;;4.60;99.90;;;;;;5072599;28;20051;-71
2022/02/20 00:05:02;;;;;;;6.35;4.70;;;4.50;99.90;;;;;;5072725;28;20413;-71
2022/02/20 00:07:27;;;;;;;5.47;4.75;;;4.50;99.90;;;;;;5054975;28;20565;-72
2022/02/20 00:09:53;;;;;;;5.97;4.82;;;4.60;99.90;;;;;;5054717;28;20076;-71
2022/02/20 00:12:18;;;;;;;6.18;4.80;;;4.50;99.90;;;;;;5054350;28;20040;-71
2022/02/20 00:14:44;;;;;;;6.78;5.18;;;4.50;99.90;;;;;;5072659;28;20544;-71
2022/02/20 00:17:10;;;;;;;6.43;5.28;;;4.50;99.90;;;;;;5054555;28;20036;-71
2022/02/20 00:19:35;;;;;;;6.43;5.78;;;4.50;99.90;;;;;;5054645;28;20493;-72
2022/02/20 00:22:01;;;;;;;6.13;4.95;;;4.50;99.90;;;;;;5054195;28;20561;-71
2022/02/20 00:24:27;;;;;;;6.20;4.88;;;4.50;99.90;;;;;;5054274;28;20119;-71
2022/02/20 00:26:52;;;;;;;6.65;4.50;;;4.50;99.90;;;;;;5072267;28;20391;-71
2022/02/20 00:29:18;;;;;;;5.05;4.20;;;4.40;99.90;;;;;;5054244;28;20040;-71
2022/02/20 00:31:43;;;;;;;5.57;4.03;;;4.40;99.90;;;;;;5054058;28;20076;-72
2022/02/20 00:34:09;;;;;;;5.72;4.82;;;4.30;99.90;;;;;;5054183;28;20040;-71
2022/02/20 00:36:34;;;;;;;5.47;3.97;;;4.30;99.90;;;;;;5072248;28;20036;-71
2022/02/20 00:39:00;;;;;;;4.88;4.32;;;4.20;99.90;;;;;;5072250;28;20089;-71
2022/02/20 00:41:26;;;;;;;4.90;4.05;;;4.20;99.90;;;;;;5071719;28;20044;-72
2022/02/20 00:43:51;;;;;;;8.18;5.47;;;4.20;99.90;;;;;;5054340;28;20043;-72
2022/02/20 00:46:17;;;;;;;6.03;4.57;;;4.10;99.90;;;;;;5072185;28;20036;-71
2022/02/20 00:48:43;;;;;;;6.70;4.90;;;4.10;99.90;;;;;;5071975;28;20041;-71
2022/02/20 00:51:09;;;;;;;7.13;5.28;;;4.10;99.90;;;;;;5071630;28;20107;-71
2022/02/20 00:53:34;;;;;;;7.53;4.70;;;4.10;99.90;;;;;;5054045;28;20036;-71
2022/02/20 00:56:00;;;;;;;5.93;4.85;;;4.10;99.90;;;;;;5071783;28;20041;-72
2022/02/20 00:58:26;;;;;;;6.90;4.93;;;4.10;99.90;;;;;;5071851;28;20570;-71
2022/02/20 01:00:51;;;;;;;5.53;4.15;;;4.10;99.90;;;;;;5053926;28;20083;-71
2022/02/20 01:03:17;;;;;;;4.88;3.65;;;4.00;99.90;;;;;;5071732;28;20559;-71
2022/02/20 01:05:44;;;;;;;4.22;3.53;;;4.00;99.90;;;;;;5071765;28;20040;-72
2022/02/20 01:08:09;;;;;;;5.93;4.07;;;4.00;99.90;;;;;;5071749;28;20044;-72
2022/02/20 01:10:35;;;;;;;4.50;3.60;;;3.90;99.90;;;;;;5053700;28;20041;-71
2022/02/20 01:13:01;;;;;;;5.68;3.85;;;4.00;99.90;;;;;;5036968;28;20076;-71
2022/02/20 01:15:27;;;;;;;4.53;2.97;;;3.90;99.90;;;;;;5053655;28;20428;-71
2022/02/20 01:17:53;;;;;;;6.15;3.30;;;4.00;99.90;;;;;;5071604;28;20497;-72
2022/02/20 01:20:18;;;;;;;6.53;3.20;;;4.00;99.90;;;;;;5071698;28;20072;-72
2022/02/20 01:22:44;;;;;;;5.03;3.28;;;4.00;99.90;;;;;;5070865;28;20048;-71
2022/02/20 01:25:10;;;;;;;3.83;3.15;;;4.00;99.90;;;;;;5071430;28;20045;-72
2022/02/20 01:27:35;;;;;;;4.22;3.15;;;4.00;99.90;;;;;;5053814;28;20048;-71
2022/02/20 01:30:02;;;;;;;3.85;3.17;;;4.00;99.90;;;;;;5071702;28;20043;-72
2022/02/20 01:32:27;;;;;;;4.20;3.20;;;4.00;99.90;;;;;;5071084;28;20509;-71
2022/02/20 01:34:53;;;;;;;3.97;3.15;;;4.00;99.90;;;;;;5071635;28;20036;-71
2022/02/20 01:37:19;;;;;;;6.88;2.88;;;4.00;99.90;;;;;;5071435;28;20036;-71
2022/02/20 01:39:44;;;;;;;5.43;3.50;;;4.00;99.90;;;;;;5071355;28;20032;-71
2022/02/20 01:42:10;;;;;;;5.45;3.00;;;4.00;99.90;;;;;;5071363;28;20116;-71
2022/02/20 01:44:35;;;;;;;6.13;3.60;;;4.00;99.90;;;;;;5071513;28;20056;-72
2022/02/20 01:47:05;;;;;;;5.72;3.63;;;4.00;99.90;;;;;;5071420;28;20029;-72
2022/02/20 01:49:31;;;;;;;6.88;3.88;;;4.00;99.90;;;;;;5071298;28;20040;-71
2022/02/20 01:51:56;;;;;;;4.90;3.20;;;4.00;99.90;;;;;;5071125;28;20036;-72
2022/02/20 01:54:22;;;;;;;7.15;3.42;;;4.00;99.90;;;;;;5071160;28;20033;-72
2022/02/20 01:56:47;;;;;;;4.95;3.30;;;4.00;99.90;;;;;;5071239;28;20498;-72
2022/02/20 01:59:13;;;;;;;5.78;3.33;;;4.00;99.90;;;;;;5071421;28;20421;-72
2022/02/20 02:01:39;;;;;;;4.03;3.20;;;4.00;99.90;;;;;;5071070;28;20041;-71
2022/02/20 02:04:05;;;;;;;4.03;2.95;;;4.00;99.90;;;;;;5071196;28;20474;-72
2022/02/20 02:06:31;;;;;;;4.38;2.83;;;4.00;99.90;;;;;;5071232;28;20045;-71
2022/02/20 02:08:58;;;;;;;4.82;3.75;;;4.00;99.90;;;;;;5070997;28;20044;-71
2022/02/20 02:11:24;;;;;;;7.30;3.85;;;4.00;99.90;;;;;;5071198;28;20028;-71
2022/02/20 02:13:50;;;;;;;5.55;3.60;;;4.00;99.90;;;;;;5071197;28;20036;-71
2022/02/20 02:16:15;;;;;;;4.82;3.70;;;4.00;99.90;;;;;;5071207;28;20032;-72
2022/02/20 02:18:42;;;;;;;4.38;3.17;;;4.00;99.90;;;;;;5071162;28;20732;-72
2022/02/20 02:21:08;;;;;;;6.22;3.80;;;4.10;99.90;;;;;;5070734;28;20052;-72
2022/02/20 02:23:33;;;;;;;4.15;2.88;;;4.00;99.90;;;;;;5052787;28;20417;-71
2022/02/20 02:25:59;;;;;;;5.53;2.92;;;4.10;99.90;;;;;;5071281;28;20040;-71
2022/02/20 02:28:26;;;;;;;4.13;3.03;;;4.10;99.90;;;;;;5053159;28;20052;-71
2022/02/20 02:30:52;;;;;;;5.47;2.90;;;4.10;99.90;;;;;;5070815;28;20037;-72
2022/02/20 02:33:32;;;;;;;4.15;3.28;;;4.10;99.90;;;;;;5071107;28;20040;-72
2022/02/20 02:35:59;;;;;;;4.15;2.47;;;4.00;99.90;;;;;;5074376;28;20043;-72
2022/02/20 02:38:26;;;;;;;6.00;2.97;;;3.90;99.90;;;;;;5074340;28;20540;-72
2022/02/20 02:41:01;;;;;;;4.40;3.05;;;3.90;99.90;;;;;;5074216;28;20391;-72
2022/02/20 02:43:27;;;;;;;4.13;3.25;;;3.90;99.90;;;;;;5074348;28;20048;-71
2022/02/20 02:45:53;;;;;;;3.38;2.83;;;3.80;99.90;;;;;;5074366;28;20098;-71
2022/02/20 02:48:19;;;;;;;3.75;2.78;;;3.80;99.90;;;;;;5074081;28;20048;-71
2022/02/20 02:50:49;;;;;;;7.10;3.55;;;3.70;99.90;;;;;;5074066;28;20043;-71
2022/02/20 02:53:15;;;;;;;4.00;3.10;;;3.70;99.90;;;;;;5074245;28;20036;-71
2022/02/20 02:55:49;;;;;;;3.78;2.85;;;3.60;99.90;;;;;;5074196;28;20033;-71
2022/02/20 02:58:19;;;;;;;4.45;3.58;;;3.60;99.90;;;;;;5056097;28;20421;-72
2022/02/20 03:00:45;;;;;;;9.82;3.95;;;3.60;99.90;;;;;;5074072;28;20052;-72
2022/02/20 03:03:11;;;;;;;5.78;3.33;;;3.50;99.90;;;;;;5073648;28;20063;-72
2022/02/20 03:05:36;;;;;;;4.57;3.88;;;3.50;99.90;;;;;;5074084;28;20048;-71
2022/02/20 03:08:02;;;;;;;7.78;3.45;;;3.50;99.90;;;;;;5073978;28;20094;-71
2022/02/20 03:10:29;;;;;;;5.05;4.13;;;3.50;99.90;;;;;;5055853;28;20040;-71
2022/02/20 03:12:54;;;;;;;5.13;3.53;;;3.50;99.90;;;;;;5073653;28;20040;-72
2022/02/20 03:15:20;;;;;;;6.80;3.78;;;3.50;99.90;;;;;;5073617;28;20047;-71
2022/02/20 03:17:46;;;;;;;5.70;4.35;;;3.50;99.90;;;;;;5073844;28;20051;-71
2022/02/20 03:20:12;;;;;;;5.43;3.72;;;3.50;99.90;;;;;;5055926;28;20420;-72
2022/02/20 03:22:38;;;;;;;7.72;4.45;;;3.50;99.90;;;;;;5073517;28;20040;-72
2022/02/20 03:25:04;;;;;;;5.03;3.92;;;3.50;99.90;;;;;;5085552;22;20098;-71
2022/02/20 03:27:30;;;;;;;6.50;4.28;;;3.50;99.90;;;;;;5072535;28;20040;-71
2022/02/20 03:29:56;;;;;;;5.95;4.50;;;3.40;99.90;;;;;;5071937;28;20043;-72
2022/02/20 03:32:21;;;;;;;5.50;4.32;;;3.40;99.90;;;;;;5088719;28;20041;-71
2022/02/20 03:34:47;;;;;;;7.72;4.60;;;3.40;99.90;;;;;;5073598;28;20037;-71
2022/02/20 03:37:12;;;;;;;7.00;5.38;;;3.40;99.90;;;;;;5073581;28;20089;-71
2022/02/20 03:39:38;;;;;;;5.20;4.20;;;3.30;99.90;;;;;;5073485;28;20121;-71
2022/02/20 03:42:03;;;;;;;5.60;4.38;;;3.30;99.90;;;;;;5071913;28;20036;-71
2022/02/20 03:44:29;;;;;;;7.40;5.07;;;3.30;99.90;;;;;;5071621;28;20048;-71
2022/02/20 03:46:54;;;;;;;7.10;4.55;;;3.30;99.90;;;;;;5071665;28;20052;-71
2022/02/20 03:49:20;;;;;;;7.00;5.07;;;3.30;99.90;;;;;;5071871;28;20067;-71
2022/02/20 03:51:46;;;;;;;7.50;5.82;;;3.30;99.90;;;;;;5071840;28;20111;-71
2022/02/20 03:54:11;;;;;;;6.75;5.28;;;3.30;99.90;;;;;;5073034;28;20043;-71
2022/02/20 03:56:37;;;;;;;9.77;5.80;;;3.30;99.90;;;;;;5073079;28;20037;-71
2022/02/20 03:59:03;;;;;;;5.50;4.60;;;3.30;99.90;;;;;;5071614;28;20036;-71
2022/02/20 04:01:29;;;;;;;7.47;4.80;;;3.30;99.90;;;;;;5072522;28;20383;-72
2022/02/20 04:03:54;;;;;;;6.75;4.75;;;3.40;99.90;;;;;;5072952;28;20493;-72
2022/02/20 04:06:20;;;;;;;6.57;4.82;;;3.40;99.90;;;;;;5071475;28;20033;-71
2022/02/20 04:08:46;;;;;;;7.72;5.05;;;3.40;99.90;;;;;;5072906;28;20120;-71
2022/02/20 04:11:11;;;;;;;6.95;4.97;;;3.40;99.90;;;;;;5071113;28;20113;-71
2022/02/20 04:13:37;;;;;;;7.50;4.72;;;3.40;99.90;;;;;;5071512;28;20119;-71
2022/02/20 04:16:04;;;;;;;6.00;4.70;;;3.50;99.90;;;;;;5054950;28;20032;-71
2022/02/20 04:18:30;;;;;;;6.05;4.57;;;3.50;99.90;;;;;;5071166;28;20093;-71
2022/02/20 04:20:55;;;;;;;6.32;4.63;;;3.50;99.90;;;;;;5071223;28;20119;-72
2022/02/20 04:23:22;;;;;;;8.60;4.60;;;3.50;99.90;;;;;;5054821;28;20052;-71
2022/02/20 04:25:47;;;;;;;6.97;4.65;;;3.60;99.90;;;;;;5071084;28;20443;-72
2022/02/20 04:28:13;;;;;;;7.03;4.32;;;3.60;99.90;;;;;;5072488;28;20098;-72
2022/02/20 04:30:39;;;;;;;5.60;4.53;;;3.60;99.90;;;;;;5071357;28;20032;-72
2022/02/20 04:33:05;;;;;;;5.25;3.65;;;3.60;99.90;;;;;;5073194;28;20040;-72
2022/02/20 04:35:33;;;;;;;8.35;4.25;;;3.60;99.90;;;;;;5072489;28;20119;-71
2022/02/20 04:37:59;;;;;;;5.00;3.90;;;3.70;99.90;;;;;;5071173;28;20043;-71
2022/02/20 04:40:24;;;;;;;6.45;4.10;;;3.70;99.90;;;;;;5071598;28;20397;-72
2022/02/20 04:42:51;;;;;;;4.53;3.92;;;3.70;99.90;;;;;;5072287;28;20505;-72
2022/02/20 04:45:18;;;;;;;5.60;3.40;;;3.70;99.90;;;;;;5071059;28;20048;-72
2022/02/20 04:47:44;;;;;;;5.28;3.90;;;3.70;99.90;;;;;;5072479;28;20076;-72
2022/02/20 04:50:10;;;;;;;7.32;3.60;;;3.70;99.90;;;;;;5071163;28;20079;-71
2022/02/20 04:52:35;;;;;;;9.95;4.25;;;3.70;99.90;;;;;;5071856;28;20040;-72
2022/02/20 04:55:01;;;;;;;5.50;4.05;;;3.70;99.90;;;;;;5072421;28;20044;-72
2022/02/20 04:57:35;;;;;;;4.65;3.33;;;3.80;99.90;;;;;;5071438;28;20111;-72
2022/02/20 05:00:01;;;;;;;5.78;3.03;;;3.80;99.90;;;;;;5072080;28;20052;-72
2022/02/20 05:02:27;;;;;;;3.65;2.72;;;3.80;99.90;;;;;;5070718;28;20041;-72
2022/02/20 05:04:52;;;;;;;6.05;2.60;;;3.80;99.90;;;;;;5071957;28;20040;-72
2022/02/20 05:07:18;;;;;;;5.53;3.00;;;3.80;99.90;;;;;;5070736;28;20045;-72
2022/02/20 05:09:43;;;;;;;4.97;3.00;;;3.90;99.90;;;;;;5070540;28;20040;-71
2022/02/20 05:12:09;;;;;;;5.07;3.05;;;3.90;99.90;;;;;;5071502;28;20493;-72
2022/02/20 05:14:34;;;;;;;8.68;3.53;;;4.00;99.90;;;;;;5071641;28;20044;-72
2022/02/20 05:17:00;;;;;;;4.90;3.97;;;4.00;99.90;;;;;;5070933;28;20402;-72
2022/02/20 05:19:25;;;;;;;5.05;3.45;;;4.00;99.90;;;;;;5070480;28;20616;-72
2022/02/20 05:21:51;;;;;;;6.63;3.15;;;4.10;99.90;;;;;;5071700;28;20456;-72
2022/02/20 05:24:17;;;;;;;4.88;2.90;;;4.00;99.90;;;;;;5071607;28;20044;-72
2022/02/20 05:26:43;;;;;;;8.27;3.50;;;4.00;99.90;;;;;;5071737;28;20051;-72
2022/02/20 05:29:09;;;;;;;4.25;2.95;;;4.10;99.90;;;;;;5071712;28;20577;-71
2022/02/20 05:31:34;;;;;;;7.10;2.75;;;4.10;99.90;;;;;;5070422;28;20048;-72
2022/02/20 05:34:00;;;;;;;6.45;3.47;;;4.10;99.90;;;;;;5071891;28;20040;-72
2022/02/20 05:36:25;;;;;;;6.20;2.95;;;4.10;99.90;;;;;;5053846;28;20608;-71
2022/02/20 05:38:51;;;;;;;4.47;3.38;;;4.10;99.90;;;;;;5070310;28;20074;-71
2022/02/20 05:41:17;;;;;;;5.78;3.20;;;4.10;99.90;;;;;;5070110;28;20338;-72
2022/02/20 05:43:43;;;;;;;4.45;2.78;;;4.20;99.90;;;;;;5070179;28;20044;-71
2022/02/20 05:46:08;;;;;;;6.93;3.28;;;4.20;99.90;;;;;;5070503;28;20043;-72
2022/02/20 05:48:34;;;;;;;7.07;3.70;;;4.20;99.90;;;;;;5070294;28;20123;-71
2022/02/20 05:51:00;;;;;;;6.82;3.30;;;4.20;99.90;;;;;;5053476;28;20036;-72
2022/02/20 05:53:25;;;;;;;5.65;3.58;;;4.20;99.90;;;;;;5070208;28;20086;-72
2022/02/20 05:55:51;;;;;;;4.53;3.17;;;4.20;99.90;;;;;;5070261;28;20090;-71
2022/02/20 05:58:17;;;;;;;3.65;3.13;;;4.20;99.90;;;;;;5071319;28;20045;-72
2022/02/20 06:00:43;;;;;;;3.50;3.00;;;4.20;99.90;;;;;;5070158;28;20117;-72
2022/02/20 06:03:09;;;;;;;4.25;3.10;;;4.30;99.90;;;;;;5070032;28;20076;-72
2022/02/20 06:05:35;;;;;;;6.50;2.97;;;4.20;99.90;;;;;;5070205;28;20086;-72
2022/02/20 06:08:00;;;;;;;4.82;3.67;;;4.20;99.90;;;;;;5072850;28;20482;-71
2022/02/20 06:10:26;;;;;;;4.93;3.40;;;4.30;99.90;;;;;;5074131;28;20090;-71
2022/02/20 06:12:53;;;;;;;5.55;3.00;;;4.20;99.90;;;;;;5073364;28;20422;-71
2022/02/20 06:15:18;;;;;;;12.23;3.45;;;4.30;99.90;;;;;;5073855;28;20052;-72
2022/02/20 06:17:44;;;;;;;4.55;3.38;;;4.30;99.90;;;;;;5073897;28;20045;-72
2022/02/20 06:20:10;;;;;;;5.82;3.80;;;4.30;99.90;;;;;;5057153;28;20036;-72
2022/02/20 06:22:36;;;;;;;5.85;3.28;;;4.30;99.90;;;;;;5073563;28;20506;-72
2022/02/20 06:25:02;;;;;;;5.50;3.08;;;4.30;99.90;;;;;;5073482;28;20036;-72
2022/02/20 06:27:28;;;;;;;6.95;3.13;;;4.40;99.90;;;;;;5074596;28;20044;-72
2022/02/20 06:29:53;;;;;;;9.05;3.15;;;4.40;99.90;;;;;;5074965;28;20084;-72
2022/02/20 06:32:19;;;;;;;6.43;3.10;;;4.40;99.90;;;;;;5073329;28;20037;-72
2022/02/20 06:34:44;;;;;;;7.35;2.83;;;4.30;99.90;;;;;;5073300;28;20118;-71
2022/02/20 06:37:11;;;;;;;6.32;3.08;;;4.40;99.90;;;;;;5056661;28;20037;-72
2022/02/20 06:39:42;;;;;;;9.75;3.53;;;4.30;99.90;;;;;;5073509;28;20469;-72
2022/02/20 06:42:08;;;;;;;7.97;3.38;;;4.30;99.90;;;;;;5072963;28;20072;-72
2022/02/20 06:44:33;;;;;;;7.72;3.70;;;4.30;99.90;;;;;;5056507;28;20067;-71
2022/02/20 06:46:59;;;;;;;13.73;4.47;;;4.30;99.90;;;;;;5073431;28;20052;-71
2022/02/20 06:49:24;;;;;;;5.93;3.70;;;4.20;99.90;;;;;;5074348;28;20513;-72
2022/02/20 06:51:50;;;;;;;6.78;4.53;;;4.30;99.90;;;;;;5074003;28;20040;-71
2022/02/20 06:54:15;;;;;;;4.75;3.72;;;4.20;99.90;;;;;;5072895;28;20083;-72
2022/02/20 06:56:41;;;;;;;7.95;4.07;;;4.30;99.90;;;;;;5073270;28;20115;-71
2022/02/20 06:59:07;;;;;;;8.15;4.70;;;4.20;99.90;;;;;;5073180;28;20429;-71
2022/02/20 07:01:32;;;;;;;7.50;4.88;;;4.30;99.90;;;;;;5072811;28;20512;-70
2022/02/20 07:03:58;;;;;;;7.55;4.25;;;4.30;99.90;;;;;;5074088;28;20044;-71
2022/02/20 07:06:23;;;;;;;8.52;4.72;;;4.30;99.90;;;;;;5073979;28;20398;-71
2022/02/20 07:08:52;;;;;;;6.68;4.65;;;4.30;99.90;;;;;;5073909;28;20040;-71
2022/02/20 07:11:18;;;;;;;7.35;4.03;;;4.30;99.90;;;;;;5073538;28;20033;-71
2022/02/20 07:13:43;;;;;;;7.40;4.10;;;4.30;99.90;;;;;;5074066;28;20101;-71
2022/02/20 07:16:09;;;;;;;8.10;4.53;;;4.30;99.90;;;;;;5055711;28;20549;-71
2022/02/20 07:18:35;;;;;;;5.40;4.15;;;4.30;99.90;;;;;;5072629;28;20052;-71
2022/02/20 07:21:00;;;;;;;8.82;3.75;;;4.30;99.90;;;;;;5071791;28;20387;-71
2022/02/20 07:23:26;;;;;;;6.57;4.38;;;4.30;99.90;;;;;;5072616;28;20036;-71
2022/02/20 07:25:52;;;;;;;7.43;4.03;;;4.30;99.90;;;;;;5072344;28;20237;-71
2022/02/20 07:28:17;;;;;;;5.53;3.80;;;4.40;99.90;;;;;;5073733;28;20094;-74
2022/02/20 07:30:43;;;;;;;5.55;4.00;;;4.30;99.90;;;;;;5072255;28;20123;-74
2022/02/20 07:33:10;;;;;;;9.20;4.15;;;4.30;99.90;;;;;;5073297;28;20116;-71
2022/02/20 07:35:36;;;;;;;6.13;4.80;;;4.30;99.90;;;;;;5072323;28;20036;-71
2022/02/20 07:38:04;;;;;;;10.95;4.22;;;4.30;99.90;;;;;;5072043;28;20102;-71
2022/02/20 07:40:30;;;;;;;6.72;4.57;;;4.40;99.90;;;;;;5072352;28;20102;-71
2022/02/20 07:42:57;;;;;;;16.58;5.63;;;4.40;99.90;;;;;;5072982;28;20044;-71
2022/02/20 07:45:24;;;;;;;8.57;4.95;;;4.40;99.90;;;;;;5073124;28;20052;-71
2022/02/20 07:47:56;;;;;;;8.23;4.82;;;4.40;99.90;;;;;;5073114;28;20055;-71
2022/02/20 07:50:24;;;;;;;13.75;5.60;;;4.50;99.90;;;;;;5055241;28;20051;-71
2022/02/20 07:52:50;;;;;;;10.05;4.80;;;4.50;99.90;;;;;;5072250;28;20623;-71
2022/02/20 07:55:17;;;;;;;12.27;5.80;;;4.50;99.90;;;;;;5072727;28;20044;-71
2022/02/20 07:57:46;;;;;;;9.55;5.28;;;4.50;99.90;;;;;;5071209;28;20041;-71
2022/02/20 08:00:17;;;;;;;9.23;5.18;;;4.50;99.90;;;;;;5072659;28;20107;-71
2022/02/20 08:02:43;;;;;;;11.25;5.55;;;4.50;99.90;;;;;;5072479;28;20494;-71
2022/02/20 08:05:09;;;;;;;10.07;6.13;;;4.60;99.90;;;;;;5072665;28;20032;-71
2022/02/20 08:07:34;;;;;;;13.85;6.10;;;4.60;99.90;;;;;;5071406;28;20040;-71
2022/02/20 08:10:00;;;;;;;8.98;5.63;;;4.60;99.90;;;;;;5071466;28;20589;-71
2022/02/20 08:12:26;;;;;;;9.38;5.40;;;4.70;99.90;;;;;;5071124;28;20044;-71
2022/02/20 08:14:51;;;;;;;10.25;5.55;;;4.70;99.90;;;;;;5072448;28;20036;-71
2022/02/20 08:17:17;;;;;;;9.25;6.18;;;4.80;99.90;;;;;;5071187;28;20032;-70
2022/02/20 08:19:42;;;;;;;9.70;5.80;;;4.80;99.90;;;;;;5072392;28;20044;-70
2022/02/20 08:22:08;;;;;;;8.23;5.40;;;4.80;99.90;;;;;;5072114;28;20086;-70
2022/02/20 08:24:33;;;;;;;8.48;5.25;;;4.90;99.90;;;;;;5072285;28;20045;-71
2022/02/20 08:26:59;;;;;;;8.80;5.30;;;5.00;99.90;;;;;;5072526;28;20047;-71
2022/02/20 08:29:24;;;;;;;12.82;5.80;;;5.00;99.90;;;;;;5070961;28;20052;-71
2022/02/20 08:31:50;;;;;;;10.35;6.00;;;5.00;99.90;;;;;;5071194;28;20089;-71
2022/02/20 08:34:16;;;;;;;10.82;6.78;;;5.10;99.90;;;;;;5072022;28;20115;-71
2022/02/20 08:36:42;;;;;;;13.50;6.13;;;5.10;99.90;;;;;;5072090;28;20075;-71
2022/02/20 08:39:07;;;;;;;12.73;6.15;;;5.20;99.90;;;;;;5072230;28;20059;-71
2022/02/20 08:41:35;;;;;;;11.13;6.47;;;5.20;99.90;;;;;;5071965;28;20041;-72
2022/02/20 08:44:00;;;;;;;10.38;6.47;;;5.30;99.90;;;;;;5071059;28;20443;-71
2022/02/20 08:46:26;;;;;;;10.88;6.32;;;5.30;99.90;;;;;;5072173;28;20116;-71
2022/02/20 08:48:51;;;;;;;11.73;6.47;;;5.40;99.90;;;;;;5070578;28;20055;-71
2022/02/20 08:51:17;;;;;;;12.73;6.43;;;5.50;99.90;;;;;;5070301;28;20032;-71
2022/02/20 08:53:43;;;;;;;10.13;6.93;;;5.60;99.90;;;;;;5070274;28;20032;-71
2022/02/20 08:56:09;;;;;;;12.85;6.90;;;5.60;99.90;;;;;;5071869;28;20058;-70
2022/02/20 08:58:35;;;;;;;11.90;6.20;;;5.80;99.90;;;;;;5070875;28;20471;-73
2022/02/20 09:01:02;;;;;;;12.60;6.47;;;5.80;99.90;;;;;;5071375;28;20543;-71
2022/02/20 09:03:28;;;;;;;9.27;5.90;;;5.90;99.90;;;;;;5070892;28;20525;-71
2022/02/20 09:05:54;;;;;;;13.48;6.93;;;6.00;99.90;;;;;;5071944;28;20042;-70
2022/02/20 09:08:20;;;;;;;11.32;7.07;;;6.00;99.90;;;;;;5071659;28;20120;-72
2022/02/20 09:10:48;;;;;;;10.75;6.53;;;6.10;99.90;;;;;;5070310;28;20413;-72
2022/02/20 09:13:14;;;;;;;14.10;6.85;;;6.10;99.90;;;;;;5071846;28;20043;-72
2022/02/20 09:15:40;;;;;;;12.35;7.97;;;6.20;99.90;;;;;;5070737;28;20037;-73
2022/02/20 09:18:06;;;;;;;14.48;8.02;;;6.30;99.90;;;;;;5071840;28;20558;-73
2022/02/20 09:20:32;;;;;;;16.70;9.10;;;6.40;99.90;;;;;;5070302;28;20517;-72
2022/02/20 09:22:57;;;;;;;14.38;9.25;;;6.40;99.90;;;;;;5072338;28;20040;-75
2022/02/20 09:25:23;;;;;;;19.02;10.40;;;6.50;99.90;;;;;;5103284;22;20459;-72
2022/02/20 09:27:48;;;;;;;20.13;11.85;;;6.60;99.90;;;;;;5090413;28;20485;-71
2022/02/20 09:30:14;;;;;;;21.35;10.95;;;6.70;99.90;;;;;;5089942;28;20121;-71
2022/02/20 09:32:41;;;;;;;26.77;14.35;;;6.80;99.90;;;;;;5091118;28;20036;-72
2022/02/20 09:35:07;;;;;;;23.25;11.65;;;6.80;99.90;;;;;;5090354;28;20425;-72
2022/02/20 09:37:32;;;;;;;23.50;12.55;;;6.90;99.90;;;;;;5090131;28;20569;-71
2022/02/20 09:39:58;;;;;;;18.98;10.18;;;7.00;99.90;;;;;;5090385;28;20107;-71
2022/02/20 09:42:24;;;;;;;19.15;9.10;;;7.10;99.90;;;;;;5091708;28;20085;-71
2022/02/20 09:44:49;;;;;;;18.15;8.38;;;7.20;99.90;;;;;;5095431;28;20044;-70
2022/02/20 09:47:15;;;;;;;17.45;7.53;;;7.30;99.90;;;;;;5095862;28;20437;-71
2022/02/20 09:49:43;;;;;;;17.75;7.53;;;7.30;99.90;;;;;;5095540;28;20117;-71
2022/02/20 09:52:09;;;;;;;18.95;8.73;;;7.40;99.90;;;;;;5095347;28;20457;-72
2022/02/20 09:54:35;;;;;;;20.40;7.63;;;7.50;99.90;;;;;;5095463;28;20123;-71
2022/02/20 09:57:00;;;;;;;33.35;8.30;;;7.60;99.90;;;;;;5095791;28;20116;-71
2022/02/20 09:59:26;;;;;;;25.83;8.38;;;7.70;99.90;;;;;;5095534;28;20558;-70
2022/02/20 10:02:09;;;;;;;26.77;8.40;;;7.80;99.90;;;;;;5093813;28;20463;-72
2022/02/20 10:04:46;;;;;;;22.17;7.90;;;8.00;99.90;;;;;;5095314;28;20036;-73
2022/02/20 10:07:35;;;;;;;42.17;10.05;;;8.10;99.90;;;;;;5095420;28;20050;-72
2022/02/20 10:10:11;;;;;;;29.95;8.45;;;8.10;99.90;;;;;;5095355;28;20036;-71
2022/02/20 10:12:37;;;;;;;33.13;8.88;;;8.20;99.90;;;;;;5095010;28;20506;-71
2022/02/20 10:15:23;;;;;;;34.22;8.05;;;8.30;99.90;;;;;;5095268;28;20038;-71
2022/02/20 10:17:49;;;;;;;35.63;10.48;;;8.40;99.90;;;;;;5093931;28;20093;-71
2022/02/20 10:20:23;;;;;;;36.80;11.10;;;8.40;99.90;;;;;;5095041;28;20044;-71
2022/02/20 10:22:48;;;;;;;40.50;8.45;;;8.50;99.90;;;;;;5093688;28;20040;-71
2022/02/20 10:25:14;;;;;;;48.72;10.32;;;8.50;99.90;;;;;;5094933;28;20565;-71
2022/02/20 10:27:54;;;;;;;37.65;9.75;;;8.60;99.90;;;;;;5094897;28;20496;-73
2022/02/20 10:30:28;;;;;;;50.72;9.63;;;8.60;99.90;;;;;;5095019;28;20089;-72
2022/02/20 10:33:11;;;;;;;34.42;8.57;;;8.60;99.90;;;;;;5094638;28;20040;-71
2022/02/20 10:35:44;;;;;;;48.75;11.73;;;8.70;99.90;;;;;;5094965;28;20035;-71
2022/02/20 10:38:21;;;;;;;41.22;9.05;;;8.70;99.90;;;;;;5094878;28;20040;-70
2022/02/20 10:40:50;;;;;;;40.20;9.32;;;8.70;99.90;;;;;;5092020;28;20032;-71
2022/02/20 10:43:48;;;;;;;40.08;9.43;;;8.80;99.90;;;;;;5093071;28;20531;-70
2022/02/20 10:46:16;;;;;;;41.15;9.00;;;8.80;99.90;;;;;;5058080;28;20048;-71
2022/02/20 10:48:47;;;;;;;41.50;9.20;;;8.80;99.90;;;;;;5093571;28;20146;-70
2022/02/20 10:51:15;;;;;;;39.72;10.32;;;8.90;99.90;;;;;;5094115;28;20140;-71
2022/02/20 10:53:42;;;;;;;47.10;10.18;;;8.90;99.90;;;;;;5093807;28;20478;-70
2022/02/20 10:56:08;;;;;;;45.47;11.02;;;8.90;99.90;;;;;;5093669;28;20508;-71
2022/02/20 10:58:41;;;;;;;45.92;8.63;;;8.90;99.90;;;;;;5092944;28;20040;-72
2022/02/20 11:01:18;;;;;;;33.90;9.43;;;8.90;99.90;;;;;;5094017;28;20044;-71
2022/02/20 11:03:43;;;;;;;57.22;10.57;;;9.00;99.90;;;;;;5094169;28;20040;-71
2022/02/20 11:06:09;;;;;;;39.35;8.50;;;9.00;99.90;;;;;;5093977;28;20059;-71
2022/02/20 11:08:35;;;;;;;48.40;10.60;;;9.00;99.90;;;;;;5093937;28;20044;-71
2022/02/20 11:11:36;;;;;;;49.40;10.80;;;9.00;99.90;;;;;;5094002;28;20047;-71
2022/02/20 11:13:50;;;;;;;38.10;10.68;;;9.00;99.90;;;;;;5093761;28;20073;-71
2022/02/20 11:16:16;;;;;;;53.97;10.60;;;9.00;99.90;;;;;;5093933;28;20413;-71
2022/02/20 11:18:42;;;;;;;39.05;9.25;;;9.00;99.90;;;;;;5093880;28;20051;-71
2022/02/20 11:21:09;;;;;;;40.65;9.73;;;9.10;99.90;;;;;;5093347;28;20120;-71
2022/02/20 11:23:34;;;;;;;50.05;9.43;;;9.10;99.90;;;;;;5092449;28;20062;-71
2022/02/20 11:26:02;;;;;;;44.75;9.80;;;9.10;99.90;;;;;;5093663;28;20634;-71
2022/02/20 11:28:28;;;;;;;56.30;11.25;;;9.10;99.90;;;;;;5092336;28;20039;-71
2022/02/20 11:30:54;;;;;;;58.47;12.73;;;9.20;99.90;;;;;;5093553;28;20040;-71
2022/02/20 11:33:21;;;;;;;43.40;9.90;;;9.10;99.90;;;;;;5093577;28;20405;-71
2022/02/20 11:35:49;;;;;;;43.90;9.88;;;9.20;99.90;;;;;;5092077;28;20036;-71
2022/02/20 11:38:21;;;;;;;57.15;10.77;;;9.10;99.90;;;;;;5093606;28;20114;-71
2022/02/20 11:40:50;;;;;;;35.13;9.48;;;9.10;99.90;;;;;;5094004;28;20032;-72
2022/02/20 11:43:16;;;;;;;44.15;11.00;;;9.20;99.90;;;;;;5095259;28;20044;-71
2022/02/20 11:46:22;;;;;;;44.70;11.35;;;9.20;99.90;;;;;;5094335;28;20039;-70
2022/02/20 11:49:03;;;;;;;46.40;10.40;;;9.20;99.90;;;;;;5014073;28;20506;-71
2022/02/20 11:51:29;;;;;;;55.85;10.88;;;9.20;99.90;;;;;;5030539;28;20046;-70
2022/02/20 11:54:18;;;;;;;50.97;10.20;;;9.30;99.90;;;;;;5055947;28;20110;-71
2022/02/20 11:57:04;;;;;;;66.97;12.40;;;9.20;99.90;;;;;;5092131;28;20071;-72
2022/02/20 11:59:30;;;;;;;51.97;12.45;;;9.20;99.90;;;;;;5091579;28;20044;-72
2022/02/20 12:02:14;;;;;;;76.70;13.18;;;9.20;99.90;;;;;;5092285;28;20028;-72
2022/02/20 12:04:51;;;;;;;48.92;10.23;;;9.20;99.90;;;;;;5092226;28;20405;-72
2022/02/20 12:07:43;;;;;;;60.63;11.63;;;9.20;99.90;;;;;;5090459;28;20032;-71
2022/02/20 12:10:19;;;;;;;52.00;11.45;;;9.20;99.90;;;;;;5081758;28;20041;-71
2022/02/20 12:12:51;;;;;;;53.75;10.50;;;9.20;99.90;;;;;;5089773;28;20127;-71
2022/02/20 12:15:40;;;;;;;50.88;11.05;;;9.30;99.90;;;;;;5092657;28;20547;-70
2022/02/20 12:18:12;;;;;;;46.05;10.57;;;9.30;99.90;;;;;;5091590;28;20054;-71
2022/02/20 12:20:53;;;;;;;54.63;11.23;;;9.30;99.90;;;;;;5092963;28;20048;-71
2022/02/20 12:23:36;;;;;;;59.90;10.50;;;9.20;99.90;;;;;;5091497;28;20047;-71
2022/02/20 12:26:06;;;;;;;70.70;12.15;;;9.20;99.90;;;;;;5092660;28;20036;-71
2022/02/20 12:28:32;;;;;;;49.75;11.73;;;9.20;99.90;;;;;;5091475;28;20119;-71
2022/02/20 12:31:28;;;;;;;47.88;12.77;;;9.20;99.90;;;;;;5092286;28;20485;-72
2022/02/20 12:33:53;;;;;;;63.78;11.88;;;9.20;99.90;;;;;;5092571;28;20032;-70
2022/02/20 12:36:28;;;;;;;46.20;12.30;;;9.20;99.90;;;;;;5092512;28;20504;-71
2022/02/20 12:38:56;;;;;;;58.42;12.40;;;9.20;99.90;;;;;;5092553;28;20044;-71
2022/02/20 12:41:21;;;;;;;61.67;10.23;;;9.20;99.90;;;;;;5091161;28;20166;-71
2022/02/20 12:43:52;;;;;;;50.83;11.65;;;9.30;99.90;;;;;;5092438;28;20536;-70
2022/02/20 12:46:18;;;;;;;43.30;9.45;;;9.30;99.90;;;;;;5092391;28;20044;-70
2022/02/20 12:48:44;;;;;;;53.33;12.15;;;9.30;99.90;;;;;;5086801;28;20048;-70
2022/02/20 12:51:11;;;;;;;51.35;10.52;;;9.30;99.90;;;;;;5083821;28;20378;-70